Terminal Aerodrome Forecast
Issued by NWS Sioux Falls, SD

Home | Current Version | Previous Version | Text Only | Print | Product List | Glossary Off
Versions: 1 2 3 4 5 6 7 8 9 10 11 12 13 14 15 16 17 18 19 20 21 22 23 24 25 26 27 28 29 30 31 32

689
FTUS43 KFSD 191141
TAFSUX
TAF
KSUX 191141Z 1912/2012 36012KT P6SM SCT012 BKN090
     FM191300 36011G17KT P6SM OVC011
     FM191600 36011G16KT P6SM OVC015
     FM192000 02012KT P6SM VCSH OVC035
     FM200300 02008KT P6SM VCSH OVC030
     FM200600 05009KT P6SM OVC025
     FM200800 03010KT P6SM OVC015=

USA.gov is the U.S. government's official web portal to all federal, state and local government web resources and services.